Terminal Aerodrome Forecast
Issued by NWS

Home | Current Version | Previous Version | Text Only | Print | Product List | Glossary On
Versions: 1 2 3 4 5 6 7 8 9 10 11 12 13 14 15 16 17 18 19 20 21 22 23 24 25 26 27
000
FTUS41 KRLX 301100
TAFCKB
TAF
KCKB 301125Z 3012/3112 00000KT P6SM SKC
     FM301700 22006KT P6SM SCT045
     FM310100 VRB03KT P6SM BKN045
     FM310800 20004KT 6SM -SHRA BR BKN080=

USA.gov is the U.S. government's official web portal to all federal, state and local government web resources and services.